Ana Sayfa
METAR-TAF:

METAR-TAF

Havaalanları :

Tientsin Binhai Uluslararası Havalimanı

Tientsin, Çin

Enlem: 39-11N, Boylam: 117-21E, yükseklik: 3 m

Güncel hava durumu gözlemi

Rapor saat 13:00 UTC de 48 dakika önce yapıldı.
Rüzgar güney/güneydoğudan 6 kt
Sıcaklık 21°C
Nem 53%
Basınç 1008 hPa
Görüş mesafesi 10 km veya daha fazla
1500 m altında bulut yok ve kümülonimbus yok

METAR: ZBTJ 271300Z 16003MPS CAVOK 21/11 Q1008 NOSIG

Saat: 21:48 (13:48 UTC)

Tahmin

Rapor saat 09:04 UTC de 4 saat ve 44 dakika önce yapıldı.
Ayın 27'si saat 12 UTC'den ayın 28'si saat 12 UTC'ye kadar geçerli Tahmin
Rüzgar güney/güneybatıdan 8 kt
Görüş mesafesi: 5000 m
Toz Pusu,

TAF: ZBTJ 270904Z 2712/2812 20004MPS 5000 HZ NSC TX31/2807Z TN16/2721Z

4.000'den fazla havaalanı için hava durumu gözlemleri ve tahminleri (METAR ve TAF raporları).

Kullanılabilir istasyonlar harita üzerinde sarı ve kırmızı noktalarla gösterilir.

İstasyonun adını görmek için fareyi noktanın üzerinde gezdirin.

Sonrasında hava gözlem ve tahminlerini görmek için tıklayın.

Haritayı değiştirmek için: yaklaştırmak için siyah artı işaretli yeşil düğmeye ve uzaklaştırmak için de eksi işaretli düğmeye hızla tıklayın; bitişik haritalar için yeşil okları kullanın.


METAR-TAF: